Terminal Aerodrome Forecast
Issued by NWS

Home | Current Version | Previous Version | Graphics & Text | Print | Product List | Glossary On
Versions: 1 2 3 4 5 6 7 8 9 10 11 12 13
729
FTUS43 KICT 011720
TAFRSL
TAF
KRSL 011720Z 0118/0218 35016G24KT P6SM OVC020
     FM011900 35015G23KT P6SM OVC025
     FM012100 36015G23KT P6SM OVC035
     FM020000 02010KT P6SM BKN035
     FM020700 33009KT P6SM SCT015 BKN025
     FM021500 33010KT P6SM SCT035=

USA.gov is the U.S. government's official web portal to all federal, state and local government web resources and services.